sensor_id;sensor_type;location;lat;lon;timestamp;P1;durP1;ratioP1;P2;durP2;ratioP2
28766;SDS011;15921;52.034;20.650;2022-09-01T00:01:26;6.90;;;2.20;;
28766;SDS011;15921;52.034;20.650;2022-09-01T00:03:53;6.47;;;2.40;;
28766;SDS011;15921;52.034;20.650;2022-09-01T00:06:20;4.15;;;2.42;;
28766;SDS011;15921;52.034;20.650;2022-09-01T00:08:51;4.93;;;2.42;;
28766;SDS011;15921;52.034;20.650;2022-09-01T00:11:18;4.63;;;2.25;;
28766;SDS011;15921;52.034;20.650;2022-09-01T00:13:46;4.05;;;2.45;;
28766;SDS011;15921;52.034;20.650;2022-09-01T00:16:13;4.53;;;2.50;;
28766;SDS011;15921;52.034;20.650;2022-09-01T00:18:41;4.70;;;2.20;;
28766;SDS011;15921;52.034;20.650;2022-09-01T00:21:10;5.60;;;2.70;;
28766;SDS011;15921;52.034;20.650;2022-09-01T00:23:37;5.85;;;2.63;;
28766;SDS011;15921;52.034;20.650;2022-09-01T00:26:04;5.88;;;2.72;;
28766;SDS011;15921;52.034;20.650;2022-09-01T00:28:34;7.80;;;2.92;;
28766;SDS011;15921;52.034;20.650;2022-09-01T00:31:00;4.22;;;2.92;;
28766;SDS011;15921;52.034;20.650;2022-09-01T00:33:27;6.90;;;2.30;;
28766;SDS011;15921;52.034;20.650;2022-09-01T00:35:53;4.85;;;2.58;;
28766;SDS011;15921;52.034;20.650;2022-09-01T00:38:19;4.43;;;2.30;;
28766;SDS011;15921;52.034;20.650;2022-09-01T00:40:44;3.95;;;2.20;;
28766;SDS011;15921;52.034;20.650;2022-09-01T00:43:14;4.03;;;2.35;;
28766;SDS011;15921;52.034;20.650;2022-09-01T00:45:43;5.15;;;2.45;;
28766;SDS011;15921;52.034;20.650;2022-09-01T00:48:08;6.47;;;2.30;;
28766;SDS011;15921;52.034;20.650;2022-09-01T00:50:35;6.22;;;2.78;;
28766;SDS011;15921;52.034;20.650;2022-09-01T00:53:01;5.90;;;2.20;;
28766;SDS011;15921;52.034;20.650;2022-09-01T00:55:30;3.78;;;2.30;;
28766;SDS011;15921;52.034;20.650;2022-09-01T00:57:57;4.28;;;2.45;;
28766;SDS011;15921;52.034;20.650;2022-09-01T01:00:26;4.53;;;1.90;;
28766;SDS011;15921;52.034;20.650;2022-09-01T01:02:53;4.20;;;2.30;;
28766;SDS011;15921;52.034;20.650;2022-09-01T01:05:24;4.40;;;2.55;;
28766;SDS011;15921;52.034;20.650;2022-09-01T01:07:55;4.38;;;2.08;;
28766;SDS011;15921;52.034;20.650;2022-09-01T01:10:21;7.57;;;2.33;;
28766;SDS011;15921;52.034;20.650;2022-09-01T01:12:48;4.40;;;2.13;;
28766;SDS011;15921;52.034;20.650;2022-09-01T01:15:15;3.42;;;1.95;;
28766;SDS011;15921;52.034;20.650;2022-09-01T01:17:42;5.00;;;2.13;;
28766;SDS011;15921;52.034;20.650;2022-09-01T01:20:08;5.22;;;2.42;;
28766;SDS011;15921;52.034;20.650;2022-09-01T01:22:59;3.30;;;1.83;;
28766;SDS011;15921;52.034;20.650;2022-09-01T01:25:42;4.77;;;2.33;;
28766;SDS011;15921;52.034;20.650;2022-09-01T01:28:38;6.18;;;2.55;;
28766;SDS011;15921;52.034;20.650;2022-09-01T01:31:06;3.90;;;2.17;;
28766;SDS011;15921;52.034;20.650;2022-09-01T01:33:46;5.05;;;2.20;;
28766;SDS011;15921;52.034;20.650;2022-09-01T01:36:15;3.30;;;1.95;;
28766;SDS011;15921;52.034;20.650;2022-09-01T01:38:51;2.65;;;1.95;;
28766;SDS011;15921;52.034;20.650;2022-09-01T01:41:17;4.65;;;2.17;;
28766;SDS011;15921;52.034;20.650;2022-09-01T01:43:44;4.13;;;2.00;;
28766;SDS011;15921;52.034;20.650;2022-09-01T01:46:10;3.80;;;1.95;;
28766;SDS011;15921;52.034;20.650;2022-09-01T01:48:39;5.05;;;1.95;;
28766;SDS011;15921;52.034;20.650;2022-09-01T01:51:06;3.83;;;2.00;;
28766;SDS011;15921;52.034;20.650;2022-09-01T01:53:34;5.63;;;2.15;;
28766;SDS011;15921;52.034;20.650;2022-09-01T01:56:00;3.80;;;2.30;;
28766;SDS011;15921;52.034;20.650;2022-09-01T01:58:26;7.70;;;2.55;;
28766;SDS011;15921;52.034;20.650;2022-09-01T02:00:56;3.00;;;2.13;;
28766;SDS011;15921;52.034;20.650;2022-09-01T02:03:24;4.00;;;2.00;;
28766;SDS011;15921;52.034;20.650;2022-09-01T02:05:53;4.65;;;2.33;;
28766;SDS011;15921;52.034;20.650;2022-09-01T02:08:20;2.78;;;1.88;;
28766;SDS011;15921;52.034;20.650;2022-09-01T02:10:50;4.15;;;2.28;;
28766;SDS011;15921;52.034;20.650;2022-09-01T02:13:18;4.38;;;1.65;;
28766;SDS011;15921;52.034;20.650;2022-09-01T02:15:50;5.28;;;2.20;;
28766;SDS011;15921;52.034;20.650;2022-09-01T02:18:25;3.88;;;1.85;;
28766;SDS011;15921;52.034;20.650;2022-09-01T02:20:53;3.83;;;1.83;;
28766;SDS011;15921;52.034;20.650;2022-09-01T02:23:21;4.03;;;1.92;;
28766;SDS011;15921;52.034;20.650;2022-09-01T02:25:51;3.67;;;1.92;;
28766;SDS011;15921;52.034;20.650;2022-09-01T02:28:25;4.13;;;1.73;;
28766;SDS011;15921;52.034;20.650;2022-09-01T02:30:51;3.80;;;2.10;;
28766;SDS011;15921;52.034;20.650;2022-09-01T02:33:19;3.97;;;2.28;;
28766;SDS011;15921;52.034;20.650;2022-09-01T02:35:51;6.00;;;2.17;;
28766;SDS011;15921;52.034;20.650;2022-09-01T02:38:19;2.53;;;1.80;;
28766;SDS011;15921;52.034;20.650;2022-09-01T02:40:47;3.38;;;1.80;;
28766;SDS011;15921;52.034;20.650;2022-09-01T02:43:14;5.78;;;2.33;;
28766;SDS011;15921;52.034;20.650;2022-09-01T02:45:45;7.65;;;1.92;;
28766;SDS011;15921;52.034;20.650;2022-09-01T02:48:24;3.85;;;2.30;;
28766;SDS011;15921;52.034;20.650;2022-09-01T02:50:56;4.88;;;2.40;;
28766;SDS011;15921;52.034;20.650;2022-09-01T02:53:27;3.75;;;1.95;;
28766;SDS011;15921;52.034;20.650;2022-09-01T02:55:53;6.50;;;2.25;;
28766;SDS011;15921;52.034;20.650;2022-09-01T02:58:23;3.67;;;2.38;;
28766;SDS011;15921;52.034;20.650;2022-09-01T03:00:54;4.38;;;2.30;;
28766;SDS011;15921;52.034;20.650;2022-09-01T03:03:21;2.92;;;2.00;;
28766;SDS011;15921;52.034;20.650;2022-09-01T03:05:50;3.17;;;2.30;;
28766;SDS011;15921;52.034;20.650;2022-09-01T03:08:21;2.87;;;2.00;;
28766;SDS011;15921;52.034;20.650;2022-09-01T03:10:48;3.13;;;2.10;;
28766;SDS011;15921;52.034;20.650;2022-09-01T03:13:19;3.38;;;1.90;;
28766;SDS011;15921;52.034;20.650;2022-09-01T03:15:48;4.23;;;2.20;;
28766;SDS011;15921;52.034;20.650;2022-09-01T03:18:14;6.10;;;2.30;;
28766;SDS011;15921;52.034;20.650;2022-09-01T03:20:42;5.85;;;2.28;;
28766;SDS011;15921;52.034;20.650;2022-09-01T03:23:11;8.27;;;2.42;;
28766;SDS011;15921;52.034;20.650;2022-09-01T03:25:43;4.70;;;2.47;;
28766;SDS011;15921;52.034;20.650;2022-09-01T03:28:13;4.38;;;2.35;;
28766;SDS011;15921;52.034;20.650;2022-09-01T03:30:43;5.90;;;2.53;;
28766;SDS011;15921;52.034;20.650;2022-09-01T03:33:11;3.80;;;2.37;;
28766;SDS011;15921;52.034;20.650;2022-09-01T03:35:37;11.30;;;2.78;;
28766;SDS011;15921;52.034;20.650;2022-09-01T03:38:03;2.88;;;2.38;;
28766;SDS011;15921;52.034;20.650;2022-09-01T03:40:31;4.90;;;2.58;;
28766;SDS011;15921;52.034;20.650;2022-09-01T03:42:58;4.28;;;2.55;;
28766;SDS011;15921;52.034;20.650;2022-09-01T03:45:25;4.05;;;2.67;;
28766;SDS011;15921;52.034;20.650;2022-09-01T03:47:51;3.47;;;2.13;;
28766;SDS011;15921;52.034;20.650;2022-09-01T03:50:19;3.65;;;2.28;;
28766;SDS011;15921;52.034;20.650;2022-09-01T03:55:21;5.05;;;2.40;;
28766;SDS011;15921;52.034;20.650;2022-09-01T03:57:51;4.55;;;2.42;;
28766;SDS011;15921;52.034;20.650;2022-09-01T04:00:19;5.45;;;2.88;;
28766;SDS011;15921;52.034;20.650;2022-09-01T04:02:51;4.60;;;2.67;;
28766;SDS011;15921;52.034;20.650;2022-09-01T04:05:21;5.05;;;3.15;;
28766;SDS011;15921;52.034;20.650;2022-09-01T04:07:53;8.67;;;2.90;;
28766;SDS011;15921;52.034;20.650;2022-09-01T04:10:25;5.03;;;2.58;;
28766;SDS011;15921;52.034;20.650;2022-09-01T04:12:50;7.05;;;2.63;;
28766;SDS011;15921;52.034;20.650;2022-09-01T04:15:17;11.82;;;4.15;;
28766;SDS011;15921;52.034;20.650;2022-09-01T04:17:43;7.22;;;3.22;;
28766;SDS011;15921;52.034;20.650;2022-09-01T04:20:28;6.78;;;2.47;;
28766;SDS011;15921;52.034;20.650;2022-09-01T04:23:04;5.07;;;2.88;;
28766;SDS011;15921;52.034;20.650;2022-09-01T04:25:35;8.50;;;2.80;;
28766;SDS011;15921;52.034;20.650;2022-09-01T04:28:03;4.88;;;2.83;;
28766;SDS011;15921;52.034;20.650;2022-09-01T04:30:39;6.53;;;2.42;;
28766;SDS011;15921;52.034;20.650;2022-09-01T04:33:06;7.60;;;2.38;;
28766;SDS011;15921;52.034;20.650;2022-09-01T04:35:36;5.47;;;2.72;;
28766;SDS011;15921;52.034;20.650;2022-09-01T04:38:03;6.90;;;2.70;;
28766;SDS011;15921;52.034;20.650;2022-09-01T04:40:30;6.47;;;3.35;;
28766;SDS011;15921;52.034;20.650;2022-09-01T04:42:55;13.25;;;3.38;;
28766;SDS011;15921;52.034;20.650;2022-09-01T04:45:21;9.40;;;2.83;;
28766;SDS011;15921;52.034;20.650;2022-09-01T04:47:49;7.22;;;3.25;;
28766;SDS011;15921;52.034;20.650;2022-09-01T04:50:16;10.02;;;3.88;;
28766;SDS011;15921;52.034;20.650;2022-09-01T04:52:43;11.02;;;4.20;;
28766;SDS011;15921;52.034;20.650;2022-09-01T04:55:10;5.35;;;3.40;;
28766;SDS011;15921;52.034;20.650;2022-09-01T04:57:45;7.38;;;3.10;;
28766;SDS011;15921;52.034;20.650;2022-09-01T05:00:16;9.57;;;3.80;;
28766;SDS011;15921;52.034;20.650;2022-09-01T05:02:51;6.25;;;3.72;;
28766;SDS011;15921;52.034;20.650;2022-09-01T05:05:27;14.20;;;3.55;;
28766;SDS011;15921;52.034;20.650;2022-09-01T05:07:54;10.25;;;3.17;;
28766;SDS011;15921;52.034;20.650;2022-09-01T05:10:21;5.32;;;2.97;;
28766;SDS011;15921;52.034;20.650;2022-09-01T05:12:53;6.50;;;3.53;;
28766;SDS011;15921;52.034;20.650;2022-09-01T05:15:21;8.15;;;3.58;;
28766;SDS011;15921;52.034;20.650;2022-09-01T05:17:47;7.05;;;3.10;;
28766;SDS011;15921;52.034;20.650;2022-09-01T05:20:13;8.48;;;3.50;;
28766;SDS011;15921;52.034;20.650;2022-09-01T05:22:40;6.90;;;3.75;;
28766;SDS011;15921;52.034;20.650;2022-09-01T05:25:07;8.80;;;3.25;;
28766;SDS011;15921;52.034;20.650;2022-09-01T05:27:41;6.85;;;3.30;;
28766;SDS011;15921;52.034;20.650;2022-09-01T05:30:14;9.43;;;3.22;;
28766;SDS011;15921;52.034;20.650;2022-09-01T05:32:41;5.75;;;2.80;;
28766;SDS011;15921;52.034;20.650;2022-09-01T05:35:08;5.32;;;2.65;;
28766;SDS011;15921;52.034;20.650;2022-09-01T05:37:34;7.50;;;2.78;;
28766;SDS011;15921;52.034;20.650;2022-09-01T05:40:02;7.43;;;3.10;;
28766;SDS011;15921;52.034;20.650;2022-09-01T05:42:30;5.68;;;2.92;;
28766;SDS011;15921;52.034;20.650;2022-09-01T05:44:58;8.70;;;2.80;;
28766;SDS011;15921;52.034;20.650;2022-09-01T05:47:24;5.35;;;3.03;;
28766;SDS011;15921;52.034;20.650;2022-09-01T05:49:50;5.63;;;2.85;;
28766;SDS011;15921;52.034;20.650;2022-09-01T05:52:17;20.27;;;2.83;;
28766;SDS011;15921;52.034;20.650;2022-09-01T05:54:49;5.30;;;2.53;;
28766;SDS011;15921;52.034;20.650;2022-09-01T05:57:22;5.88;;;2.38;;
28766;SDS011;15921;52.034;20.650;2022-09-01T05:59:47;7.43;;;2.57;;
28766;SDS011;15921;52.034;20.650;2022-09-01T06:02:18;7.45;;;2.90;;
28766;SDS011;15921;52.034;20.650;2022-09-01T06:04:46;7.63;;;2.97;;
28766;SDS011;15921;52.034;20.650;2022-09-01T06:07:13;6.60;;;2.30;;
28766;SDS011;15921;52.034;20.650;2022-09-01T06:09:42;8.02;;;2.38;;
28766;SDS011;15921;52.034;20.650;2022-09-01T06:12:11;4.43;;;2.50;;
28766;SDS011;15921;52.034;20.650;2022-09-01T06:14:43;10.23;;;3.00;;
28766;SDS011;15921;52.034;20.650;2022-09-01T06:17:09;10.77;;;2.42;;
28766;SDS011;15921;52.034;20.650;2022-09-01T06:19:36;17.95;;;2.83;;
28766;SDS011;15921;52.034;20.650;2022-09-01T06:22:04;5.55;;;2.17;;
28766;SDS011;15921;52.034;20.650;2022-09-01T06:24:30;10.52;;;2.53;;
28766;SDS011;15921;52.034;20.650;2022-09-01T06:26:56;6.75;;;2.33;;
28766;SDS011;15921;52.034;20.650;2022-09-01T06:29:23;5.18;;;2.30;;
28766;SDS011;15921;52.034;20.650;2022-09-01T06:31:49;5.78;;;2.00;;
28766;SDS011;15921;52.034;20.650;2022-09-01T06:34:16;3.45;;;1.88;;
28766;SDS011;15921;52.034;20.650;2022-09-01T06:36:43;4.78;;;2.00;;
28766;SDS011;15921;52.034;20.650;2022-09-01T06:39:11;6.38;;;2.00;;
28766;SDS011;15921;52.034;20.650;2022-09-01T06:41:47;10.88;;;2.10;;
28766;SDS011;15921;52.034;20.650;2022-09-01T06:44:16;3.92;;;1.45;;
28766;SDS011;15921;52.034;20.650;2022-09-01T06:46:47;5.88;;;1.67;;
28766;SDS011;15921;52.034;20.650;2022-09-01T06:49:13;9.02;;;2.15;;
28766;SDS011;15921;52.034;20.650;2022-09-01T06:51:39;5.32;;;1.73;;
28766;SDS011;15921;52.034;20.650;2022-09-01T06:54:05;9.27;;;1.55;;
28766;SDS011;15921;52.034;20.650;2022-09-01T06:56:31;8.50;;;1.60;;
28766;SDS011;15921;52.034;20.650;2022-09-01T06:58:58;3.53;;;1.48;;
28766;SDS011;15921;52.034;20.650;2022-09-01T07:01:28;5.38;;;1.20;;
28766;SDS011;15921;52.034;20.650;2022-09-01T07:03:54;3.10;;;1.40;;
28766;SDS011;15921;52.034;20.650;2022-09-01T07:06:24;3.53;;;1.15;;
28766;SDS011;15921;52.034;20.650;2022-09-01T07:08:55;7.55;;;1.40;;
28766;SDS011;15921;52.034;20.650;2022-09-01T07:11:25;5.47;;;1.90;;
28766;SDS011;15921;52.034;20.650;2022-09-01T07:13:56;4.03;;;1.40;;
28766;SDS011;15921;52.034;20.650;2022-09-01T07:16:28;4.68;;;1.33;;
28766;SDS011;15921;52.034;20.650;2022-09-01T07:18:59;5.10;;;1.67;;
28766;SDS011;15921;52.034;20.650;2022-09-01T07:21:26;5.97;;;1.13;;
28766;SDS011;15921;52.034;20.650;2022-09-01T07:23:53;3.20;;;1.20;;
28766;SDS011;15921;52.034;20.650;2022-09-01T07:26:21;1.95;;;1.00;;
28766;SDS011;15921;52.034;20.650;2022-09-01T07:28:49;7.13;;;1.20;;
28766;SDS011;15921;52.034;20.650;2022-09-01T07:31:20;5.50;;;1.90;;
28766;SDS011;15921;52.034;20.650;2022-09-01T07:33:49;1.77;;;0.95;;
28766;SDS011;15921;52.034;20.650;2022-09-01T07:36:17;1.38;;;0.57;;
28766;SDS011;15921;52.034;20.650;2022-09-01T07:38:43;1.88;;;0.60;;
28766;SDS011;15921;52.034;20.650;2022-09-01T07:41:10;2.78;;;1.02;;
28766;SDS011;15921;52.034;20.650;2022-09-01T07:43:39;1.33;;;0.68;;
28766;SDS011;15921;52.034;20.650;2022-09-01T07:46:09;3.47;;;0.60;;
28766;SDS011;15921;52.034;20.650;2022-09-01T07:48:35;2.85;;;0.52;;
28766;SDS011;15921;52.034;20.650;2022-09-01T07:51:02;3.10;;;0.95;;
28766;SDS011;15921;52.034;20.650;2022-09-01T07:53:29;2.00;;;0.60;;
28766;SDS011;15921;52.034;20.650;2022-09-01T07:55:58;1.98;;;0.60;;
28766;SDS011;15921;52.034;20.650;2022-09-01T07:58:31;4.07;;;0.90;;
28766;SDS011;15921;52.034;20.650;2022-09-01T08:00:57;6.75;;;1.08;;
28766;SDS011;15921;52.034;20.650;2022-09-01T08:03:27;2.83;;;0.60;;
28766;SDS011;15921;52.034;20.650;2022-09-01T08:05:53;4.55;;;0.60;;
28766;SDS011;15921;52.034;20.650;2022-09-01T08:08:23;4.57;;;0.80;;
28766;SDS011;15921;52.034;20.650;2022-09-01T08:10:49;1.85;;;0.60;;
28766;SDS011;15921;52.034;20.650;2022-09-01T08:13:16;3.72;;;0.50;;
28766;SDS011;15921;52.034;20.650;2022-09-01T08:15:42;0.82;;;0.40;;
28766;SDS011;15921;52.034;20.650;2022-09-01T08:18:08;1.60;;;0.50;;
28766;SDS011;15921;52.034;20.650;2022-09-01T08:20:36;4.85;;;0.65;;
28766;SDS011;15921;52.034;20.650;2022-09-01T08:23:05;1.00;;;0.60;;
28766;SDS011;15921;52.034;20.650;2022-09-01T08:25:31;2.05;;;0.73;;
28766;SDS011;15921;52.034;20.650;2022-09-01T08:28:00;3.35;;;0.88;;
28766;SDS011;15921;52.034;20.650;2022-09-01T08:30:26;2.70;;;0.40;;
28766;SDS011;15921;52.034;20.650;2022-09-01T08:32:52;1.67;;;0.40;;
28766;SDS011;15921;52.034;20.650;2022-09-01T08:35:18;3.42;;;0.77;;
28766;SDS011;15921;52.034;20.650;2022-09-01T08:37:43;3.03;;;0.73;;
28766;SDS011;15921;52.034;20.650;2022-09-01T08:40:11;2.15;;;0.50;;
28766;SDS011;15921;52.034;20.650;2022-09-01T08:42:43;1.55;;;0.60;;
28766;SDS011;15921;52.034;20.650;2022-09-01T08:45:19;2.75;;;0.60;;
28766;SDS011;15921;52.034;20.650;2022-09-01T08:47:51;2.35;;;0.60;;
28766;SDS011;15921;52.034;20.650;2022-09-01T08:50:22;2.50;;;0.75;;
28766;SDS011;15921;52.034;20.650;2022-09-01T08:53:00;1.33;;;0.50;;
28766;SDS011;15921;52.034;20.650;2022-09-01T08:55:38;1.40;;;0.40;;
28766;SDS011;15921;52.034;20.650;2022-09-01T08:58:08;1.95;;;0.60;;
28766;SDS011;15921;52.034;20.650;2022-09-01T09:00:41;0.93;;;0.50;;
28766;SDS011;15921;52.034;20.650;2022-09-01T09:03:20;2.00;;;0.60;;
28766;SDS011;15921;52.034;20.650;2022-09-01T09:09:03;1.63;;;0.50;;
28766;SDS011;15921;52.034;20.650;2022-09-01T09:17:08;2.13;;;0.52;;
28766;SDS011;15921;52.034;20.650;2022-09-01T09:19:36;0.77;;;0.40;;
28766;SDS011;15921;52.034;20.650;2022-09-01T09:22:06;2.72;;;0.70;;
28766;SDS011;15921;52.034;20.650;2022-09-01T09:24:49;2.50;;;0.65;;
28766;SDS011;15921;52.034;20.650;2022-09-01T09:27:27;1.38;;;0.50;;
28766;SDS011;15921;52.034;20.650;2022-09-01T09:30:05;2.00;;;0.60;;
28766;SDS011;15921;52.034;20.650;2022-09-01T09:37:45;2.17;;;0.80;;
28766;SDS011;15921;52.034;20.650;2022-09-01T09:45:21;4.53;;;0.90;;
28766;SDS011;15921;52.034;20.650;2022-09-01T09:48:08;2.08;;;0.60;;
28766;SDS011;15921;52.034;20.650;2022-09-01T09:50:50;3.50;;;0.65;;
28766;SDS011;15921;52.034;20.650;2022-09-01T09:58:42;1.83;;;0.30;;
28766;SDS011;15921;52.034;20.650;2022-09-01T10:01:26;2.92;;;0.70;;
28766;SDS011;15921;52.034;20.650;2022-09-01T10:03:55;1.40;;;0.70;;
28766;SDS011;15921;52.034;20.650;2022-09-01T10:09:00;3.00;;;0.40;;
28766;SDS011;15921;52.034;20.650;2022-09-01T10:11:48;2.42;;;0.50;;
28766;SDS011;15921;52.034;20.650;2022-09-01T10:14:33;1.38;;;0.88;;
28766;SDS011;15921;52.034;20.650;2022-09-01T10:17:10;1.60;;;1.02;;
28766;SDS011;15921;52.034;20.650;2022-09-01T10:19:39;2.28;;;0.70;;
28766;SDS011;15921;52.034;20.650;2022-09-01T10:22:15;1.25;;;0.40;;
28766;SDS011;15921;52.034;20.650;2022-09-01T10:24:41;0.60;;;0.35;;
28766;SDS011;15921;52.034;20.650;2022-09-01T10:27:12;1.67;;;0.50;;
28766;SDS011;15921;52.034;20.650;2022-09-01T10:32:18;0.45;;;0.30;;
28766;SDS011;15921;52.034;20.650;2022-09-01T10:34:53;3.95;;;0.43;;
28766;SDS011;15921;52.034;20.650;2022-09-01T10:37:20;2.35;;;0.43;;
28766;SDS011;15921;52.034;20.650;2022-09-01T10:42:43;0.60;;;0.40;;
28766;SDS011;15921;52.034;20.650;2022-09-01T10:45:43;1.23;;;0.52;;
28766;SDS011;15921;52.034;20.650;2022-09-01T10:50:48;3.72;;;0.52;;
28766;SDS011;15921;52.034;20.650;2022-09-01T10:58:49;1.45;;;0.35;;
28766;SDS011;15921;52.034;20.650;2022-09-01T11:04:08;2.17;;;0.52;;
28766;SDS011;15921;52.034;20.650;2022-09-01T11:06:58;0.68;;;0.28;;
28766;SDS011;15921;52.034;20.650;2022-09-01T11:09:28;0.52;;;0.22;;
28766;SDS011;15921;52.034;20.650;2022-09-01T11:14:59;2.63;;;0.50;;
28766;SDS011;15921;52.034;20.650;2022-09-01T11:28:02;3.50;;;0.30;;
28766;SDS011;15921;52.034;20.650;2022-09-01T11:46:47;0.32;;;0.30;;
28766;SDS011;15921;52.034;20.650;2022-09-01T11:49:29;0.50;;;0.38;;
28766;SDS011;15921;52.034;20.650;2022-09-01T11:52:04;1.83;;;0.50;;
28766;SDS011;15921;52.034;20.650;2022-09-01T11:54:38;4.07;;;0.30;;
28766;SDS011;15921;52.034;20.650;2022-09-01T11:58:06;2.42;;;0.60;;
28766;SDS011;15921;52.034;20.650;2022-09-01T12:00:06;1.20;;;0.40;;
28766;SDS011;15921;52.034;20.650;2022-09-01T12:02:47;1.30;;;0.25;;
28766;SDS011;15921;52.034;20.650;2022-09-01T12:07:55;2.35;;;0.30;;
28766;SDS011;15921;52.034;20.650;2022-09-01T12:13:37;2.05;;;0.52;;
28766;SDS011;15921;52.034;20.650;2022-09-01T12:15:52;1.02;;;0.50;;
28766;SDS011;15921;52.034;20.650;2022-09-01T12:18:23;2.30;;;0.50;;
28766;SDS011;15921;52.034;20.650;2022-09-01T12:20:52;0.77;;;0.65;;
28766;SDS011;15921;52.034;20.650;2022-09-01T12:23:23;0.55;;;0.28;;
28766;SDS011;15921;52.034;20.650;2022-09-01T12:25:56;1.17;;;0.43;;
28766;SDS011;15921;52.034;20.650;2022-09-01T12:28:27;1.42;;;0.30;;
28766;SDS011;15921;52.034;20.650;2022-09-01T12:30:55;1.05;;;0.60;;
28766;SDS011;15921;52.034;20.650;2022-09-01T12:33:22;3.80;;;0.50;;
28766;SDS011;15921;52.034;20.650;2022-09-01T12:35:50;1.83;;;0.47;;
28766;SDS011;15921;52.034;20.650;2022-09-01T12:40:45;0.98;;;0.55;;
28766;SDS011;15921;52.034;20.650;2022-09-01T12:43:31;1.35;;;0.57;;
28766;SDS011;15921;52.034;20.650;2022-09-01T12:45:59;0.70;;;0.30;;
28766;SDS011;15921;52.034;20.650;2022-09-01T12:48:27;2.03;;;0.55;;
28766;SDS011;15921;52.034;20.650;2022-09-01T12:50:56;0.70;;;0.40;;
28766;SDS011;15921;52.034;20.650;2022-09-01T12:53:25;0.55;;;0.30;;
28766;SDS011;15921;52.034;20.650;2022-09-01T12:55:54;1.63;;;0.43;;
28766;SDS011;15921;52.034;20.650;2022-09-01T12:58:24;0.52;;;0.40;;
28766;SDS011;15921;52.034;20.650;2022-09-01T13:03:29;1.27;;;0.52;;
28766;SDS011;15921;52.034;20.650;2022-09-01T13:05:57;0.57;;;0.20;;
28766;SDS011;15921;52.034;20.650;2022-09-01T13:08:25;0.60;;;0.40;;
28766;SDS011;15921;52.034;20.650;2022-09-01T13:11:04;1.45;;;0.30;;
28766;SDS011;15921;52.034;20.650;2022-09-01T13:13:31;2.70;;;0.40;;
28766;SDS011;15921;52.034;20.650;2022-09-01T13:15:59;2.58;;;0.50;;
28766;SDS011;15921;52.034;20.650;2022-09-01T13:18:32;3.03;;;0.70;;
28766;SDS011;15921;52.034;20.650;2022-09-01T13:20:58;0.52;;;0.40;;
28766;SDS011;15921;52.034;20.650;2022-09-01T13:23:25;1.30;;;0.43;;
28766;SDS011;15921;52.034;20.650;2022-09-01T13:25:51;0.90;;;0.63;;
28766;SDS011;15921;52.034;20.650;2022-09-01T13:28:17;2.25;;;0.50;;
28766;SDS011;15921;52.034;20.650;2022-09-01T13:30:47;0.85;;;0.50;;
28766;SDS011;15921;52.034;20.650;2022-09-01T13:33:17;0.85;;;0.50;;
28766;SDS011;15921;52.034;20.650;2022-09-01T13:35:43;0.80;;;0.40;;
28766;SDS011;15921;52.034;20.650;2022-09-01T13:38:08;5.30;;;0.50;;
28766;SDS011;15921;52.034;20.650;2022-09-01T13:40:34;0.95;;;0.35;;
28766;SDS011;15921;52.034;20.650;2022-09-01T13:43:00;4.18;;;0.35;;
28766;SDS011;15921;52.034;20.650;2022-09-01T13:45:28;1.67;;;0.40;;
28766;SDS011;15921;52.034;20.650;2022-09-01T13:47:54;0.43;;;0.30;;
28766;SDS011;15921;52.034;20.650;2022-09-01T13:50:21;0.57;;;0.30;;
28766;SDS011;15921;52.034;20.650;2022-09-01T13:52:52;2.10;;;0.40;;
28766;SDS011;15921;52.034;20.650;2022-09-01T13:55:29;1.33;;;0.40;;
28766;SDS011;15921;52.034;20.650;2022-09-01T13:57:57;0.95;;;0.45;;
28766;SDS011;15921;52.034;20.650;2022-09-01T14:00:24;1.73;;;0.40;;
28766;SDS011;15921;52.034;20.650;2022-09-01T14:02:53;2.00;;;0.57;;
28766;SDS011;15921;52.034;20.650;2022-09-01T14:05:22;1.00;;;0.50;;
28766;SDS011;15921;52.034;20.650;2022-09-01T14:07:53;0.93;;;0.50;;
28766;SDS011;15921;52.034;20.650;2022-09-01T14:10:19;1.25;;;0.50;;
28766;SDS011;15921;52.034;20.650;2022-09-01T14:12:46;0.57;;;0.40;;
28766;SDS011;15921;52.034;20.650;2022-09-01T14:15:13;0.93;;;0.50;;
28766;SDS011;15921;52.034;20.650;2022-09-01T14:17:40;0.65;;;0.30;;
28766;SDS011;15921;52.034;20.650;2022-09-01T14:20:07;2.38;;;0.70;;
28766;SDS011;15921;52.034;20.650;2022-09-01T14:22:37;3.05;;;0.60;;
28766;SDS011;15921;52.034;20.650;2022-09-01T14:25:07;2.20;;;0.65;;
28766;SDS011;15921;52.034;20.650;2022-09-01T14:27:34;1.08;;;0.30;;
28766;SDS011;15921;52.034;20.650;2022-09-01T14:30:02;2.80;;;0.25;;
28766;SDS011;15921;52.034;20.650;2022-09-01T14:32:32;0.65;;;0.30;;
28766;SDS011;15921;52.034;20.650;2022-09-01T14:34:59;1.92;;;0.50;;
28766;SDS011;15921;52.034;20.650;2022-09-01T14:37:25;1.00;;;0.50;;
28766;SDS011;15921;52.034;20.650;2022-09-01T14:39:54;0.80;;;0.38;;
28766;SDS011;15921;52.034;20.650;2022-09-01T14:42:21;1.17;;;0.60;;
28766;SDS011;15921;52.034;20.650;2022-09-01T14:44:53;3.90;;;0.85;;
28766;SDS011;15921;52.034;20.650;2022-09-01T14:47:19;0.85;;;0.55;;
28766;SDS011;15921;52.034;20.650;2022-09-01T14:49:46;3.97;;;0.50;;
28766;SDS011;15921;52.034;20.650;2022-09-01T14:52:12;0.40;;;0.40;;
28766;SDS011;15921;52.034;20.650;2022-09-01T14:54:39;1.27;;;0.50;;
28766;SDS011;15921;52.034;20.650;2022-09-01T14:57:09;0.55;;;0.40;;
28766;SDS011;15921;52.034;20.650;2022-09-01T14:59:47;1.77;;;0.57;;
28766;SDS011;15921;52.034;20.650;2022-09-01T15:02:13;1.85;;;0.38;;
28766;SDS011;15921;52.034;20.650;2022-09-01T15:04:39;1.40;;;0.50;;
28766;SDS011;15921;52.034;20.650;2022-09-01T15:07:06;2.05;;;0.40;;
28766;SDS011;15921;52.034;20.650;2022-09-01T15:09:32;2.05;;;0.52;;
28766;SDS011;15921;52.034;20.650;2022-09-01T15:12:11;1.77;;;0.50;;
28766;SDS011;15921;52.034;20.650;2022-09-01T15:14:37;2.60;;;0.47;;
28766;SDS011;15921;52.034;20.650;2022-09-01T15:17:03;0.35;;;0.30;;
28766;SDS011;15921;52.034;20.650;2022-09-01T15:19:30;1.52;;;0.40;;
28766;SDS011;15921;52.034;20.650;2022-09-01T15:21:56;0.65;;;0.40;;
28766;SDS011;15921;52.034;20.650;2022-09-01T15:24:21;0.88;;;0.52;;
28766;SDS011;15921;52.034;20.650;2022-09-01T15:26:48;1.33;;;0.50;;
28766;SDS011;15921;52.034;20.650;2022-09-01T15:29:14;0.82;;;0.30;;
28766;SDS011;15921;52.034;20.650;2022-09-01T15:31:41;1.95;;;0.45;;
28766;SDS011;15921;52.034;20.650;2022-09-01T15:34:08;2.00;;;0.30;;
28766;SDS011;15921;52.034;20.650;2022-09-01T15:36:35;2.40;;;0.32;;
28766;SDS011;15921;52.034;20.650;2022-09-01T15:39:06;0.80;;;0.30;;
28766;SDS011;15921;52.034;20.650;2022-09-01T15:41:33;1.33;;;0.60;;
28766;SDS011;15921;52.034;20.650;2022-09-01T15:44:00;1.70;;;0.50;;
28766;SDS011;15921;52.034;20.650;2022-09-01T15:46:31;0.77;;;0.52;;
28766;SDS011;15921;52.034;20.650;2022-09-01T15:49:02;2.00;;;0.68;;
28766;SDS011;15921;52.034;20.650;2022-09-01T15:54:03;2.92;;;0.70;;
28766;SDS011;15921;52.034;20.650;2022-09-01T15:56:31;3.13;;;0.68;;
28766;SDS011;15921;52.034;20.650;2022-09-01T15:58:58;4.03;;;1.00;;
28766;SDS011;15921;52.034;20.650;2022-09-01T16:01:25;1.48;;;0.50;;
28766;SDS011;15921;52.034;20.650;2022-09-01T16:03:53;1.42;;;0.73;;
28766;SDS011;15921;52.034;20.650;2022-09-01T16:06:20;1.20;;;0.60;;
28766;SDS011;15921;52.034;20.650;2022-09-01T16:08:47;6.38;;;1.10;;
28766;SDS011;15921;52.034;20.650;2022-09-01T16:11:14;2.83;;;0.70;;
28766;SDS011;15921;52.034;20.650;2022-09-01T16:13:40;2.70;;;0.70;;
28766;SDS011;15921;52.034;20.650;2022-09-01T16:18:51;5.65;;;0.90;;